createdAt,value
2023-06-07T00:00:38.349Z,2.88
2023-06-07T00:03:10.500Z,2.60
2023-06-07T00:05:40.315Z,2.53
2023-06-07T00:08:08.698Z,2.60
2023-06-07T00:10:38.162Z,2.38
2023-06-07T00:13:06.568Z,2.75
2023-06-07T00:15:34.292Z,2.45
2023-06-07T00:18:02.568Z,2.55
2023-06-07T00:20:31.925Z,2.40
2023-06-07T00:22:59.665Z,2.65
2023-06-07T00:25:28.618Z,2.65
2023-06-07T00:27:57.849Z,2.90
2023-06-07T00:30:25.647Z,2.47
2023-06-07T00:32:53.452Z,2.33
2023-06-07T00:35:21.239Z,2.72
2023-06-07T00:37:48.962Z,2.53
2023-06-07T00:40:17.106Z,2.72
2023-06-07T00:42:45.100Z,2.47
2023-06-07T00:45:14.431Z,2.50
2023-06-07T00:47:42.985Z,2.35
2023-06-07T00:50:12.433Z,2.72
2023-06-07T00:52:41.302Z,2.80
2023-06-07T00:55:11.050Z,3.00
2023-06-07T00:57:39.480Z,2.80
2023-06-07T01:00:11.110Z,2.50
2023-06-07T01:02:40.771Z,3.10
2023-06-07T01:05:09.416Z,2.58
2023-06-07T01:07:37.379Z,2.75
2023-06-07T01:10:07.525Z,2.45
2023-06-07T01:12:35.803Z,2.90
2023-06-07T01:15:05.355Z,2.67
2023-06-07T01:17:33.931Z,2.63
2023-06-07T01:20:06.455Z,2.50
2023-06-07T01:22:35.821Z,2.53
2023-06-07T01:25:05.757Z,2.95
2023-06-07T01:27:34.726Z,2.85
2023-06-07T01:30:03.484Z,2.70
2023-06-07T01:32:32.408Z,2.58
2023-06-07T01:35:00.630Z,3.00
2023-06-07T01:37:29.094Z,3.10
2023-06-07T01:39:58.632Z,2.67
2023-06-07T01:42:28.601Z,2.80
2023-06-07T01:44:57.311Z,2.88
2023-06-07T01:47:25.634Z,2.72
2023-06-07T01:49:53.582Z,2.75
2023-06-07T01:52:21.577Z,2.83
2023-06-07T01:54:50.163Z,2.92
2023-06-07T01:57:26.485Z,2.78
2023-06-07T02:00:08.826Z,3.00
2023-06-07T02:02:46.080Z,2.70
2023-06-07T02:05:18.954Z,2.60
2023-06-07T02:07:50.432Z,2.45
2023-06-07T02:10:21.418Z,3.55
2023-06-07T02:12:51.748Z,3.67
2023-06-07T02:15:21.077Z,3.00
2023-06-07T02:17:58.572Z,2.78
2023-06-07T02:20:27.505Z,3.08
2023-06-07T02:22:56.083Z,2.92
2023-06-07T02:25:24.106Z,2.53
2023-06-07T02:27:52.640Z,2.88
2023-06-07T02:30:22.296Z,2.60
2023-06-07T02:32:50.887Z,2.78
2023-06-07T02:35:20.091Z,3.00
2023-06-07T02:37:48.196Z,3.17
2023-06-07T02:40:16.834Z,2.80
2023-06-07T02:42:48.233Z,3.10
2023-06-07T02:45:16.685Z,2.70
2023-06-07T02:47:46.550Z,3.30
2023-06-07T02:50:14.417Z,2.63
2023-06-07T02:52:42.712Z,3.45
2023-06-07T02:55:11.164Z,2.83
2023-06-07T02:57:38.919Z,2.95
2023-06-07T03:00:11.961Z,2.60
2023-06-07T03:02:40.087Z,3.13
2023-06-07T03:05:10.238Z,3.20
2023-06-07T03:07:38.135Z,3.05
2023-06-07T03:10:06.991Z,2.80
2023-06-07T03:12:35.064Z,2.90
2023-06-07T03:15:02.926Z,2.90
2023-06-07T03:17:32.398Z,3.00
2023-06-07T03:20:00.245Z,2.47
2023-06-07T03:22:29.530Z,3.28
2023-06-07T03:24:58.515Z,2.83
2023-06-07T03:27:28.728Z,3.10
2023-06-07T03:29:57.440Z,2.72
2023-06-07T03:32:25.257Z,3.15
2023-06-07T03:34:53.574Z,3.10
2023-06-07T03:37:21.532Z,2.55
2023-06-07T03:39:51.035Z,3.13
2023-06-07T03:42:18.916Z,3.67
2023-06-07T03:44:50.596Z,3.08
2023-06-07T03:47:18.388Z,3.17
2023-06-07T03:49:46.084Z,3.80
2023-06-07T03:52:13.944Z,3.05
2023-06-07T03:54:41.827Z,2.80
2023-06-07T03:57:11.599Z,2.78
2023-06-07T03:59:39.409Z,3.20
2023-06-07T04:02:08.180Z,3.08
2023-06-07T04:04:36.174Z,3.47
2023-06-07T04:07:04.424Z,2.70
2023-06-07T04:09:32.351Z,3.08
2023-06-07T04:12:00.127Z,2.90
2023-06-07T04:14:29.424Z,3.08
2023-06-07T04:16:57.317Z,3.22
2023-06-07T04:19:25.235Z,3.10
2023-06-07T04:21:53.863Z,3.00
2023-06-07T04:24:21.669Z,2.85
2023-06-07T04:26:50.938Z,3.10
2023-06-07T04:29:21.996Z,3.13
2023-06-07T04:31:53.761Z,3.47
2023-06-07T04:34:22.853Z,3.50
2023-06-07T04:36:51.367Z,2.90
2023-06-07T04:39:21.633Z,2.92
2023-06-07T04:41:50.263Z,3.13
2023-06-07T04:44:30.049Z,2.72
2023-06-07T04:47:06.605Z,3.30
2023-06-07T04:49:39.658Z,3.22
2023-06-07T04:52:08.480Z,3.40
2023-06-07T04:54:37.926Z,3.42
2023-06-07T04:57:07.925Z,3.40
2023-06-07T04:59:42.788Z,3.15
2023-06-07T05:02:12.655Z,3.47
2023-06-07T05:04:41.613Z,3.10
2023-06-07T05:07:10.191Z,3.22
2023-06-07T05:09:38.787Z,3.15
2023-06-07T05:12:07.800Z,3.50
2023-06-07T05:14:35.819Z,3.35
2023-06-07T05:17:03.780Z,2.90
2023-06-07T05:19:33.575Z,3.00
2023-06-07T05:22:01.554Z,3.40
2023-06-07T05:24:29.614Z,3.33
2023-06-07T05:26:57.556Z,3.10
2023-06-07T05:29:25.482Z,2.90
2023-06-07T05:31:53.521Z,2.80
2023-06-07T05:34:21.603Z,3.22
2023-06-07T05:36:52.527Z,3.10
2023-06-07T05:39:20.742Z,3.28
2023-06-07T05:41:48.684Z,3.00
2023-06-07T05:44:16.634Z,3.00
2023-06-07T05:46:44.578Z,2.92
2023-06-07T05:49:12.625Z,2.95
2023-06-07T05:51:40.787Z,2.45
2023-06-07T05:54:10.063Z,2.70
2023-06-07T05:56:37.954Z,2.90
2023-06-07T05:59:06.124Z,2.53
2023-06-07T06:01:35.979Z,2.47
2023-06-07T06:04:04.402Z,2.63
2023-06-07T06:06:32.232Z,2.80
2023-06-07T06:09:00.114Z,2.80
2023-06-07T06:11:29.431Z,2.63
2023-06-07T06:13:57.306Z,2.28
2023-06-07T06:16:25.163Z,2.80
2023-06-07T06:18:53.015Z,2.40
2023-06-07T06:21:21.029Z,2.45
2023-06-07T06:23:50.086Z,2.30
2023-06-07T06:26:19.621Z,2.33
2023-06-07T06:28:49.039Z,2.70
2023-06-07T06:31:17.940Z,2.35
2023-06-07T06:33:47.499Z,3.05
2023-06-07T06:36:15.322Z,2.45
2023-06-07T06:38:43.174Z,2.63
2023-06-07T06:41:11.231Z,2.10
2023-06-07T06:43:39.410Z,2.30
2023-06-07T06:46:08.783Z,2.60
2023-06-07T06:48:38.726Z,2.67
2023-06-07T06:51:06.604Z,2.47
2023-06-07T06:53:34.669Z,2.75
2023-06-07T06:56:02.676Z,2.55
2023-06-07T06:58:32.109Z,2.50
2023-06-07T07:01:00.162Z,2.67
2023-06-07T07:03:29.464Z,2.60
2023-06-07T07:05:57.338Z,2.58
2023-06-07T07:08:25.798Z,2.28
2023-06-07T07:10:53.915Z,2.47
2023-06-07T07:13:22.052Z,2.78
2023-06-07T07:15:50.066Z,2.78
2023-06-07T07:18:18.265Z,2.20
2023-06-07T07:20:48.059Z,2.38
2023-06-07T07:23:16.092Z,2.45
2023-06-07T07:25:43.947Z,2.20
2023-06-07T07:28:11.909Z,2.50
2023-06-07T07:30:39.952Z,2.05
2023-06-07T07:33:07.799Z,2.40
2023-06-07T07:35:36.708Z,2.10
2023-06-07T07:38:06.430Z,2.38
2023-06-07T07:40:34.450Z,2.13
2023-06-07T07:43:02.428Z,2.38
2023-06-07T07:45:30.272Z,2.40
2023-06-07T07:47:58.181Z,2.63
2023-06-07T07:50:26.251Z,2.10
2023-06-07T07:52:56.081Z,2.33
2023-06-07T07:55:26.170Z,2.47
2023-06-07T07:57:54.059Z,2.30
2023-06-07T08:00:22.771Z,2.20
2023-06-07T08:02:50.727Z,2.17
2023-06-07T08:05:18.675Z,2.38
2023-06-07T08:07:46.618Z,2.28
2023-06-07T08:10:14.536Z,2.47
2023-06-07T08:12:44.182Z,2.40
2023-06-07T08:15:12.874Z,1.98
2023-06-07T08:17:41.642Z,2.35
2023-06-07T08:20:10.709Z,2.20
2023-06-07T08:22:39.270Z,2.15
2023-06-07T08:25:08.357Z,2.35
2023-06-07T08:27:36.697Z,2.88
2023-06-07T08:30:07.615Z,2.50
2023-06-07T08:32:36.442Z,2.60
2023-06-07T08:35:04.989Z,2.60
2023-06-07T08:37:33.748Z,2.33
2023-06-07T08:40:01.732Z,2.40
2023-06-07T08:42:29.818Z,2.53
2023-06-07T08:44:57.906Z,2.50
2023-06-07T08:47:29.245Z,2.75
2023-06-07T08:49:58.903Z,2.40
2023-06-07T08:52:27.553Z,2.55
2023-06-07T08:55:00.352Z,2.50
2023-06-07T08:57:32.159Z,3.08
2023-06-07T09:00:01.533Z,2.30
2023-06-07T09:02:31.162Z,2.72
2023-06-07T09:05:02.775Z,2.53
2023-06-07T09:07:30.649Z,2.47
2023-06-07T09:09:58.553Z,2.47
2023-06-07T09:12:26.409Z,2.17
2023-06-07T09:14:55.677Z,2.65
2023-06-07T09:17:24.185Z,2.50
2023-06-07T09:19:53.641Z,2.20
2023-06-07T09:22:26.864Z,2.42
2023-06-07T09:24:55.868Z,2.15
2023-06-07T09:27:31.430Z,2.30
2023-06-07T09:30:05.866Z,2.45
2023-06-07T09:32:38.514Z,2.20
2023-06-07T09:35:15.372Z,2.47
2023-06-07T09:37:44.685Z,2.28
2023-06-07T09:40:14.728Z,2.13
2023-06-07T09:42:43.064Z,2.03
2023-06-07T09:45:14.799Z,2.42
2023-06-07T09:47:43.959Z,2.42
2023-06-07T09:50:15.293Z,2.15
2023-06-07T09:52:43.190Z,2.33
2023-06-07T09:55:28.596Z,2.92
2023-06-07T09:57:57.612Z,2.40
2023-06-07T10:00:27.413Z,2.38
2023-06-07T10:03:06.774Z,2.33
2023-06-07T10:05:37.195Z,2.47
2023-06-07T10:08:06.449Z,2.30
2023-06-07T10:10:36.047Z,2.20
2023-06-07T10:13:06.681Z,1.80
2023-06-07T10:15:36.653Z,2.58
2023-06-07T10:18:14.651Z,2.38
2023-06-07T10:20:52.625Z,2.05
2023-06-07T10:23:30.357Z,2.38
2023-06-07T10:26:01.587Z,2.30
2023-06-07T10:28:34.493Z,2.25
2023-06-07T10:31:07.190Z,2.25
2023-06-07T10:33:35.894Z,2.20
2023-06-07T10:36:08.892Z,2.30
2023-06-07T10:38:37.439Z,2.70
2023-06-07T10:41:07.142Z,1.90
2023-06-07T10:43:36.090Z,2.03
2023-06-07T10:46:19.295Z,1.90
2023-06-07T10:48:48.140Z,2.30
2023-06-07T10:51:18.162Z,2.35
2023-06-07T10:53:53.701Z,2.30
2023-06-07T10:56:29.230Z,2.20
2023-06-07T10:58:59.059Z,2.67
2023-06-07T11:01:28.066Z,2.55
2023-06-07T11:03:56.296Z,2.65
2023-06-07T11:06:25.953Z,2.30
2023-06-07T11:09:20.409Z,3.42
2023-06-07T11:11:48.436Z,2.35
2023-06-07T11:14:16.514Z,2.28
2023-06-07T11:16:44.698Z,2.38
2023-06-07T11:19:14.897Z,2.25
2023-06-07T11:22:09.093Z,2.38
2023-06-07T11:24:39.076Z,2.45
2023-06-07T11:27:15.382Z,2.10
2023-06-07T11:29:44.819Z,2.55
2023-06-07T11:32:13.112Z,2.30
2023-06-07T11:34:41.195Z,2.70
2023-06-07T11:37:17.592Z,2.70
2023-06-07T11:39:46.584Z,2.53
2023-06-07T11:42:14.659Z,2.53
2023-06-07T11:44:43.571Z,2.28
2023-06-07T11:47:11.876Z,2.05
2023-06-07T11:49:43.212Z,2.03
2023-06-07T11:52:11.200Z,2.22
2023-06-07T11:54:46.448Z,2.65
2023-06-07T11:57:14.911Z,2.13
2023-06-07T11:59:44.072Z,2.08
2023-06-07T12:02:13.124Z,2.33
2023-06-07T12:04:45.466Z,2.20
2023-06-07T12:07:22.433Z,2.30
2023-06-07T12:09:54.585Z,2.50
2023-06-07T12:12:24.668Z,2.40
2023-06-07T12:15:01.492Z,2.20
2023-06-07T12:17:35.603Z,2.53
2023-06-07T12:20:10.613Z,2.42
2023-06-07T12:22:38.562Z,2.40
2023-06-07T12:25:15.139Z,2.20
2023-06-07T12:27:46.640Z,2.05
2023-06-07T12:30:14.729Z,2.38
2023-06-07T12:32:44.491Z,2.15
2023-06-07T12:35:13.651Z,2.72
2023-06-07T12:37:41.934Z,2.13
2023-06-07T12:40:11.763Z,2.10
2023-06-07T12:42:41.560Z,2.33
2023-06-07T12:45:10.861Z,1.92
2023-06-07T12:47:38.926Z,2.35
2023-06-07T12:50:07.547Z,2.13
2023-06-07T12:52:35.600Z,2.33
2023-06-07T12:55:04.047Z,2.47
2023-06-07T12:57:33.661Z,1.98
2023-06-07T13:00:01.555Z,2.00
2023-06-07T13:02:30.194Z,2.25
2023-06-07T13:04:58.174Z,2.58
2023-06-07T13:07:26.254Z,2.90
2023-06-07T13:09:54.170Z,2.50
2023-06-07T13:12:22.072Z,2.53
2023-06-07T13:14:51.309Z,2.33
2023-06-07T13:17:19.429Z,2.78
2023-06-07T13:19:47.677Z,2.55
2023-06-07T13:22:15.747Z,2.70
2023-06-07T13:24:44.010Z,2.42
2023-06-07T13:27:11.974Z,2.40
2023-06-07T13:29:40.331Z,2.33
2023-06-07T13:32:10.330Z,2.40
2023-06-07T13:34:38.318Z,2.28
2023-06-07T13:37:06.707Z,2.53
2023-06-07T13:39:35.196Z,2.13
2023-06-07T13:42:04.938Z,2.22
2023-06-07T13:44:32.718Z,2.65
2023-06-07T13:47:04.284Z,2.33
2023-06-07T13:49:34.896Z,2.35
2023-06-07T13:52:03.393Z,2.65
2023-06-07T13:54:33.202Z,2.47
2023-06-07T13:57:01.688Z,2.50
2023-06-07T13:59:30.145Z,2.40
2023-06-07T14:01:58.759Z,2.85
2023-06-07T14:04:28.110Z,2.20
2023-06-07T14:06:57.523Z,2.30
2023-06-07T14:09:25.514Z,2.65
2023-06-07T14:11:53.407Z,2.47
2023-06-07T14:14:21.599Z,2.28
2023-06-07T14:16:50.509Z,2.55
2023-06-07T14:19:18.502Z,2.70
2023-06-07T14:21:46.492Z,2.53
2023-06-07T14:24:15.959Z,2.30
2023-06-07T14:26:44.267Z,2.80
2023-06-07T14:29:12.237Z,2.30
2023-06-07T14:31:41.074Z,2.47
2023-06-07T14:34:09.041Z,2.65
2023-06-07T14:36:37.534Z,2.33
2023-06-07T14:39:06.351Z,2.50
2023-06-07T14:41:35.705Z,2.50
2023-06-07T14:44:03.919Z,2.28
2023-06-07T14:46:31.789Z,2.78
2023-06-07T14:48:59.716Z,2.38
2023-06-07T14:51:31.111Z,2.97
2023-06-07T14:53:59.004Z,2.47
2023-06-07T14:56:28.161Z,2.45
2023-06-07T14:58:57.546Z,2.30
2023-06-07T15:01:26.396Z,2.45
2023-06-07T15:03:55.666Z,2.58
2023-06-07T15:06:23.608Z,2.30
2023-06-07T15:08:54.593Z,2.42
2023-06-07T15:11:22.708Z,2.15
2023-06-07T15:13:50.669Z,2.58
2023-06-07T15:16:20.167Z,2.33
2023-06-07T15:18:47.970Z,2.47
2023-06-07T15:21:15.720Z,2.80
2023-06-07T15:23:43.756Z,2.20
2023-06-07T15:26:11.846Z,2.05
2023-06-07T15:28:39.778Z,2.40
2023-06-07T15:31:07.748Z,2.28
2023-06-07T15:33:36.999Z,2.88
2023-06-07T15:36:08.422Z,2.20
2023-06-07T15:38:38.835Z,2.58
2023-06-07T15:43:44.096Z,2.40
2023-06-07T15:46:13.150Z,2.67
2023-06-07T15:48:49.015Z,3.00
2023-06-07T15:51:17.109Z,2.33
2023-06-07T15:53:47.573Z,2.60
2023-06-07T15:56:15.712Z,2.70
2023-06-07T15:58:44.100Z,2.95
2023-06-07T16:01:12.333Z,2.42
2023-06-07T16:03:54.928Z,2.70
2023-06-07T16:06:26.275Z,2.40
2023-06-07T16:08:54.378Z,2.25
2023-06-07T16:11:22.795Z,2.53
2023-06-07T16:13:50.786Z,2.72
2023-06-07T16:16:19.282Z,2.42
2023-06-07T16:18:48.430Z,2.38
2023-06-07T16:21:17.835Z,2.63
2023-06-07T16:23:47.272Z,2.30
2023-06-07T16:26:15.522Z,2.47
2023-06-07T16:28:43.650Z,2.70
2023-06-07T16:31:11.620Z,2.75
2023-06-07T16:33:39.555Z,2.63
2023-06-07T16:36:08.674Z,2.45
2023-06-07T16:38:37.013Z,2.10
2023-06-07T16:41:09.266Z,2.47
2023-06-07T16:43:40.562Z,2.25
2023-06-07T16:46:18.979Z,2.20
2023-06-07T16:48:47.065Z,2.47
2023-06-07T16:51:15.096Z,3.05
2023-06-07T16:53:43.312Z,2.88
2023-06-07T16:56:12.905Z,2.80
2023-06-07T16:58:41.224Z,2.92
2023-06-07T17:01:10.140Z,2.67
2023-06-07T17:03:38.293Z,2.42
2023-06-07T17:06:07.398Z,2.60
2023-06-07T17:08:35.552Z,2.90
2023-06-07T17:11:06.252Z,2.58
2023-06-07T17:13:36.200Z,2.47
2023-06-07T17:16:04.298Z,2.80
2023-06-07T17:18:32.328Z,2.88
2023-06-07T17:21:00.284Z,2.60
2023-06-07T17:23:28.309Z,2.38
2023-06-07T17:25:56.388Z,2.40
2023-06-07T17:28:24.357Z,2.70
2023-06-07T17:30:54.109Z,2.38
2023-06-07T17:33:22.191Z,2.35
2023-06-07T17:35:50.188Z,2.30
2023-06-07T17:38:18.822Z,2.45
2023-06-07T17:40:47.092Z,2.40
2023-06-07T17:43:15.862Z,2.60
2023-06-07T17:45:43.897Z,2.58
2023-06-07T17:48:14.871Z,2.78
2023-06-07T17:50:46.881Z,3.00
2023-06-07T17:53:15.872Z,3.25
2023-06-07T17:55:53.445Z,2.67
2023-06-07T17:58:21.724Z,2.92
2023-06-07T18:00:50.967Z,2.72
2023-06-07T18:03:21.416Z,2.55
2023-06-07T18:05:49.577Z,2.85
2023-06-07T18:08:17.455Z,2.72
2023-06-07T18:10:45.542Z,2.30
2023-06-07T18:13:13.431Z,2.08
2023-06-07T18:15:41.522Z,2.65
2023-06-07T18:18:09.647Z,2.75
2023-06-07T18:20:38.961Z,2.80
2023-06-07T18:23:07.029Z,2.45
2023-06-07T18:25:34.951Z,2.55
2023-06-07T18:28:02.886Z,2.30
2023-06-07T18:30:30.902Z,2.50
2023-06-07T18:32:58.905Z,2.33
2023-06-07T18:35:26.980Z,2.85
2023-06-07T18:37:56.699Z,2.97
2023-06-07T18:40:24.796Z,2.42
2023-06-07T18:42:52.688Z,2.60
2023-06-07T18:45:20.714Z,2.72
2023-06-07T18:47:48.713Z,2.72
2023-06-07T18:50:17.992Z,2.90
2023-06-07T18:52:46.048Z,2.60
2023-06-07T18:55:15.553Z,2.67
2023-06-07T18:57:43.668Z,3.03
2023-06-07T19:00:12.491Z,3.10
2023-06-07T19:02:40.761Z,3.40
2023-06-07T19:05:09.641Z,3.50
2023-06-07T19:07:38.071Z,2.65
2023-06-07T19:10:07.072Z,2.70
2023-06-07T19:12:36.682Z,2.75
2023-06-07T19:15:06.656Z,2.80
2023-06-07T19:17:35.069Z,2.40
2023-06-07T19:20:03.473Z,2.47
2023-06-07T19:22:31.590Z,3.05
2023-06-07T19:24:59.593Z,3.25
2023-06-07T19:27:30.477Z,2.70
2023-06-07T19:29:59.834Z,2.58
2023-06-07T19:32:30.638Z,3.03
2023-06-07T19:34:59.078Z,2.95
2023-06-07T19:37:27.392Z,3.22
2023-06-07T19:39:58.145Z,2.70
2023-06-07T19:42:27.799Z,2.88
2023-06-07T19:44:55.957Z,2.67
2023-06-07T19:47:25.785Z,3.00
2023-06-07T19:49:53.952Z,3.72
2023-06-07T19:52:22.016Z,2.60
2023-06-07T19:54:50.692Z,3.30
2023-06-07T19:57:19.171Z,3.00
2023-06-07T19:59:50.136Z,2.80
2023-06-07T20:02:20.712Z,3.00
2023-06-07T20:04:50.657Z,2.72
2023-06-07T20:07:18.953Z,3.20
2023-06-07T20:09:47.490Z,2.97
2023-06-07T20:12:15.640Z,2.85
2023-06-07T20:14:43.667Z,3.10
2023-06-07T20:17:12.240Z,2.88
2023-06-07T20:19:40.460Z,2.90
2023-06-07T20:22:10.208Z,2.90
2023-06-07T20:24:38.170Z,3.00
2023-06-07T20:27:06.737Z,2.70
2023-06-07T20:29:34.940Z,2.63
2023-06-07T20:32:03.075Z,2.58
2023-06-07T20:34:31.267Z,2.90
2023-06-07T20:36:59.135Z,2.92
2023-06-07T20:39:28.504Z,2.78
2023-06-07T20:41:57.523Z,2.80
2023-06-07T20:44:30.927Z,3.20
2023-06-07T20:47:08.162Z,2.92
2023-06-07T20:49:36.276Z,3.58
2023-06-07T20:52:04.390Z,3.10
2023-06-07T20:54:33.963Z,2.70
2023-06-07T20:57:01.912Z,2.72
2023-06-07T20:59:32.066Z,3.17
2023-06-07T21:02:01.440Z,3.00
2023-06-07T21:04:29.559Z,2.92
2023-06-07T21:06:58.826Z,3.53
2023-06-07T21:09:27.047Z,3.28
2023-06-07T21:11:56.837Z,3.03
2023-06-07T21:14:24.682Z,3.10
2023-06-07T21:16:52.704Z,3.42
2023-06-07T21:19:20.761Z,2.70
2023-06-07T21:21:48.721Z,3.13
2023-06-07T21:24:16.749Z,2.70
2023-06-07T21:26:44.964Z,3.13
2023-06-07T21:29:14.677Z,2.78
2023-06-07T21:31:43.563Z,3.58
2023-06-07T21:34:13.982Z,3.25
2023-06-07T21:36:42.674Z,3.20
2023-06-07T21:39:12.173Z,3.05
2023-06-07T21:41:43.582Z,3.33
2023-06-07T21:44:11.864Z,2.72
2023-06-07T21:46:41.400Z,3.40
2023-06-07T21:49:09.611Z,3.30
2023-06-07T21:51:40.611Z,3.13
2023-06-07T21:54:09.234Z,3.00
2023-06-07T21:56:42.507Z,3.65
2023-06-07T21:59:11.204Z,3.20
2023-06-07T22:01:42.319Z,3.63
2023-06-07T22:04:10.656Z,3.90
2023-06-07T22:06:44.679Z,3.58
2023-06-07T22:09:15.315Z,3.67
2023-06-07T22:11:46.645Z,3.05
2023-06-07T22:14:15.549Z,3.83
2023-06-07T22:16:51.316Z,3.10
2023-06-07T22:19:20.953Z,3.58
2023-06-07T22:21:49.761Z,3.55
2023-06-07T22:24:19.184Z,3.78
2023-06-07T22:26:50.189Z,3.42
2023-06-07T22:29:18.823Z,3.40
2023-06-07T22:31:48.744Z,3.67
2023-06-07T22:34:19.291Z,3.58
2023-06-07T22:36:50.452Z,3.05
2023-06-07T22:39:21.224Z,3.63
2023-06-07T22:41:53.241Z,3.40
2023-06-07T22:44:21.607Z,3.42
2023-06-07T22:46:52.677Z,3.80
2023-06-07T22:49:23.824Z,3.30
2023-06-07T22:51:54.629Z,3.00
2023-06-07T22:54:28.852Z,3.30
2023-06-07T22:56:58.496Z,3.45
2023-06-07T22:59:26.879Z,3.47
2023-06-07T23:02:00.769Z,4.13
2023-06-07T23:04:29.172Z,3.72
2023-06-07T23:06:59.425Z,3.90
2023-06-07T23:09:27.987Z,3.45
2023-06-07T23:12:00.368Z,3.35
2023-06-07T23:14:29.659Z,3.35
2023-06-07T23:17:02.456Z,3.40
2023-06-07T23:19:30.849Z,3.42
2023-06-07T23:21:59.973Z,3.08
2023-06-07T23:24:31.116Z,3.67
2023-06-07T23:27:00.318Z,3.80
2023-06-07T23:29:28.982Z,3.40
2023-06-07T23:31:59.300Z,3.13
2023-06-07T23:34:28.893Z,3.67
2023-06-07T23:36:57.005Z,4.22
2023-06-07T23:39:25.208Z,4.05
2023-06-07T23:41:55.885Z,3.58
2023-06-07T23:44:27.505Z,3.28
2023-06-07T23:46:56.968Z,3.50
2023-06-07T23:49:35.910Z,3.80
2023-06-07T23:52:06.157Z,3.65
2023-06-07T23:54:36.928Z,3.33
2023-06-07T23:57:10.795Z,3.08
2023-06-07T23:59:41.194Z,3.80
